sensor_id;sensor_type;location;lat;lon;timestamp;P1;P2;P0
48717;PMS5003;34521;33.042;-96.586;2024-01-25T00:01:06;39;38;
48717;PMS5003;34521;33.042;-96.586;2024-01-25T00:03:32;40;37;
48717;PMS5003;34521;33.042;-96.586;2024-01-25T00:05:56;32;31;
48717;PMS5003;34521;33.042;-96.586;2024-01-25T00:08:22;42;39;
48717;PMS5003;34521;33.042;-96.586;2024-01-25T00:10:47;35;34;
48717;PMS5003;34521;33.042;-96.586;2024-01-25T00:13:13;35;35;
48717;PMS5003;34521;33.042;-96.586;2024-01-25T00:15:38;39;37;
48717;PMS5003;34521;33.042;-96.586;2024-01-25T00:18:05;38;36;
48717;PMS5003;34521;33.042;-96.586;2024-01-25T00:20:29;37;34;
48717;PMS5003;34521;33.042;-96.586;2024-01-25T00:22:55;38;34;
48717;PMS5003;34521;33.042;-96.586;2024-01-25T00:25:21;37;34;
48717;PMS5003;34521;33.042;-96.586;2024-01-25T00:27:47;34;34;
48717;PMS5003;34521;33.042;-96.586;2024-01-25T00:30:13;36;33;
48717;PMS5003;34521;33.042;-96.586;2024-01-25T00:32:37;36;36;
48717;PMS5003;34521;33.042;-96.586;2024-01-25T00:35:02;32;32;
48717;PMS5003;34521;33.042;-96.586;2024-01-25T00:37:29;35;31;
48717;PMS5003;34521;33.042;-96.586;2024-01-25T00:39:55;30;29;
48717;PMS5003;34521;33.042;-96.586;2024-01-25T00:42:20;32;29;
48717;PMS5003;34521;33.042;-96.586;2024-01-25T00:44:44;30;29;
48717;PMS5003;34521;33.042;-96.586;2024-01-25T00:47:11;32;31;
48717;PMS5003;34521;33.042;-96.586;2024-01-25T00:49:35;32;31;
48717;PMS5003;34521;33.042;-96.586;2024-01-25T00:52:00;28;26;
48717;PMS5003;34521;33.042;-96.586;2024-01-25T00:54:26;35;34;
48717;PMS5003;34521;33.042;-96.586;2024-01-25T00:56:50;39;36;
48717;PMS5003;34521;33.042;-96.586;2024-01-25T00:59:16;32;32;
48717;PMS5003;34521;33.042;-96.586;2024-01-25T01:01:42;39;37;
48717;PMS5003;34521;33.042;-96.586;2024-01-25T01:04:08;31;30;
48717;PMS5003;34521;33.042;-96.586;2024-01-25T01:06:36;29;29;
48717;PMS5003;34521;33.042;-96.586;2024-01-25T01:08:58;33;32;
48717;PMS5003;34521;33.042;-96.586;2024-01-25T01:11:23;34;34;
48717;PMS5003;34521;33.042;-96.586;2024-01-25T01:13:48;37;34;
48717;PMS5003;34521;33.042;-96.586;2024-01-25T01:16:13;30;28;
48717;PMS5003;34521;33.042;-96.586;2024-01-25T01:18:39;28;25;
48717;PMS5003;34521;33.042;-96.586;2024-01-25T01:21:04;28;25;
48717;PMS5003;34521;33.042;-96.586;2024-01-25T01:23:30;26;26;
48717;PMS5003;34521;33.042;-96.586;2024-01-25T01:25:56;30;29;
48717;PMS5003;34521;33.042;-96.586;2024-01-25T01:28:20;32;30;
48717;PMS5003;34521;33.042;-96.586;2024-01-25T01:30:47;28;27;
48717;PMS5003;34521;33.042;-96.586;2024-01-25T01:33:12;24;23;
48717;PMS5003;34521;33.042;-96.586;2024-01-25T01:35:37;23;22;
48717;PMS5003;34521;33.042;-96.586;2024-01-25T01:38:02;22;21;
48717;PMS5003;34521;33.042;-96.586;2024-01-25T01:40:28;22;20;
48717;PMS5003;34521;33.042;-96.586;2024-01-25T01:42:59;23;22;
48717;PMS5003;34521;33.042;-96.586;2024-01-25T01:45:18;26;26;
48717;PMS5003;34521;33.042;-96.586;2024-01-25T01:47:44;20;18;
48717;PMS5003;34521;33.042;-96.586;2024-01-25T01:50:10;26;25;
48717;PMS5003;34521;33.042;-96.586;2024-01-25T01:52:35;26;23;
48717;PMS5003;34521;33.042;-96.586;2024-01-25T01:55:01;23;23;
48717;PMS5003;34521;33.042;-96.586;2024-01-25T01:57:26;32;32;
48717;PMS5003;34521;33.042;-96.586;2024-01-25T01:59:51;33;31;
48717;PMS5003;34521;33.042;-96.586;2024-01-25T02:02:17;33;32;
48717;PMS5003;34521;33.042;-96.586;2024-01-25T02:04:42;28;26;
48717;PMS5003;34521;33.042;-96.586;2024-01-25T02:07:07;25;25;
48717;PMS5003;34521;33.042;-96.586;2024-01-25T02:09:32;30;30;
48717;PMS5003;34521;33.042;-96.586;2024-01-25T02:11:59;31;31;
48717;PMS5003;34521;33.042;-96.586;2024-01-25T02:14:23;31;29;
48717;PMS5003;34521;33.042;-96.586;2024-01-25T02:16:49;29;28;
48717;PMS5003;34521;33.042;-96.586;2024-01-25T02:19:16;28;27;
48717;PMS5003;34521;33.042;-96.586;2024-01-25T02:21:40;26;26;
48717;PMS5003;34521;33.042;-96.586;2024-01-25T02:24:06;29;27;
48717;PMS5003;34521;33.042;-96.586;2024-01-25T02:26:31;23;23;
48717;PMS5003;34521;33.042;-96.586;2024-01-25T02:28:56;31;31;
48717;PMS5003;34521;33.042;-96.586;2024-01-25T02:31:21;25;24;
48717;PMS5003;34521;33.042;-96.586;2024-01-25T02:33:47;31;29;
48717;PMS5003;34521;33.042;-96.586;2024-01-25T02:36:13;36;35;
48717;PMS5003;34521;33.042;-96.586;2024-01-25T02:38:37;35;33;
48717;PMS5003;34521;33.042;-96.586;2024-01-25T02:41:03;38;35;
48717;PMS5003;34521;33.042;-96.586;2024-01-25T02:43:27;32;31;
48717;PMS5003;34521;33.042;-96.586;2024-01-25T02:45:53;30;28;
48717;PMS5003;34521;33.042;-96.586;2024-01-25T02:48:19;30;30;
48717;PMS5003;34521;33.042;-96.586;2024-01-25T02:50:45;34;32;
48717;PMS5003;34521;33.042;-96.586;2024-01-25T02:53:11;32;30;
48717;PMS5003;34521;33.042;-96.586;2024-01-25T02:55:37;34;32;
48717;PMS5003;34521;33.042;-96.586;2024-01-25T02:58:02;36;34;
48717;PMS5003;34521;33.042;-96.586;2024-01-25T03:00:27;33;32;
48717;PMS5003;34521;33.042;-96.586;2024-01-25T03:02:57;36;35;
48717;PMS5003;34521;33.042;-96.586;2024-01-25T03:05:18;33;32;
48717;PMS5003;34521;33.042;-96.586;2024-01-25T03:07:44;45;41;
48717;PMS5003;34521;33.042;-96.586;2024-01-25T03:10:09;41;37;
48717;PMS5003;34521;33.042;-96.586;2024-01-25T03:12:34;33;29;
48717;PMS5003;34521;33.042;-96.586;2024-01-25T03:14:59;44;42;
48717;PMS5003;34521;33.042;-96.586;2024-01-25T03:17:26;33;32;
48717;PMS5003;34521;33.042;-96.586;2024-01-25T03:19:50;39;37;
48717;PMS5003;34521;33.042;-96.586;2024-01-25T03:22:16;35;34;
48717;PMS5003;34521;33.042;-96.586;2024-01-25T03:24:41;37;36;
48717;PMS5003;34521;33.042;-96.586;2024-01-25T03:27:07;35;34;
48717;PMS5003;34521;33.042;-96.586;2024-01-25T03:29:32;34;33;
48717;PMS5003;34521;33.042;-96.586;2024-01-25T03:31:59;35;34;
48717;PMS5003;34521;33.042;-96.586;2024-01-25T03:34:23;39;36;
48717;PMS5003;34521;33.042;-96.586;2024-01-25T03:36:49;33;32;
48717;PMS5003;34521;33.042;-96.586;2024-01-25T03:39:16;34;34;
48717;PMS5003;34521;33.042;-96.586;2024-01-25T03:41:40;35;33;
48717;PMS5003;34521;33.042;-96.586;2024-01-25T03:44:06;36;34;
48717;PMS5003;34521;33.042;-96.586;2024-01-25T03:46:31;38;35;
48717;PMS5003;34521;33.042;-96.586;2024-01-25T03:48:56;41;39;
48717;PMS5003;34521;33.042;-96.586;2024-01-25T03:51:23;35;33;
48717;PMS5003;34521;33.042;-96.586;2024-01-25T03:53:47;41;36;
48717;PMS5003;34521;33.042;-96.586;2024-01-25T03:56:12;39;38;
48717;PMS5003;34521;33.042;-96.586;2024-01-25T03:58:38;36;36;
48717;PMS5003;34521;33.042;-96.586;2024-01-25T04:01:03;40;38;
48717;PMS5003;34521;33.042;-96.586;2024-01-25T04:03:28;42;39;
48717;PMS5003;34521;33.042;-96.586;2024-01-25T04:05:54;37;35;
48717;PMS5003;34521;33.042;-96.586;2024-01-25T04:08:19;39;37;
48717;PMS5003;34521;33.042;-96.586;2024-01-25T04:10:46;37;35;
48717;PMS5003;34521;33.042;-96.586;2024-01-25T04:13:10;35;33;
48717;PMS5003;34521;33.042;-96.586;2024-01-25T04:15:35;36;36;
48717;PMS5003;34521;33.042;-96.586;2024-01-25T04:18:02;33;32;
48717;PMS5003;34521;33.042;-96.586;2024-01-25T04:20:27;38;36;
48717;PMS5003;34521;33.042;-96.586;2024-01-25T04:22:52;33;31;
48717;PMS5003;34521;33.042;-96.586;2024-01-25T04:25:18;37;35;
48717;PMS5003;34521;33.042;-96.586;2024-01-25T04:27:42;44;39;
48717;PMS5003;34521;33.042;-96.586;2024-01-25T04:30:09;39;38;
48717;PMS5003;34521;33.042;-96.586;2024-01-25T04:32:35;43;43;
48717;PMS5003;34521;33.042;-96.586;2024-01-25T04:35:01;46;43;
48717;PMS5003;34521;33.042;-96.586;2024-01-25T04:37:25;45;43;
48717;PMS5003;34521;33.042;-96.586;2024-01-25T04:39:50;48;44;
48717;PMS5003;34521;33.042;-96.586;2024-01-25T04:42:17;40;40;
48717;PMS5003;34521;33.042;-96.586;2024-01-25T04:44:41;45;43;
48717;PMS5003;34521;33.042;-96.586;2024-01-25T04:47:07;47;44;
48717;PMS5003;34521;33.042;-96.586;2024-01-25T04:49:32;50;46;
48717;PMS5003;34521;33.042;-96.586;2024-01-25T04:51:59;57;50;
48717;PMS5003;34521;33.042;-96.586;2024-01-25T04:54:23;50;48;
48717;PMS5003;34521;33.042;-96.586;2024-01-25T04:56:49;47;44;
48717;PMS5003;34521;33.042;-96.586;2024-01-25T04:59:15;47;41;
48717;PMS5003;34521;33.042;-96.586;2024-01-25T05:01:40;43;42;
48717;PMS5003;34521;33.042;-96.586;2024-01-25T05:04:06;47;44;
48717;PMS5003;34521;33.042;-96.586;2024-01-25T05:06:30;45;39;
48717;PMS5003;34521;33.042;-96.586;2024-01-25T05:08:56;42;37;
48717;PMS5003;34521;33.042;-96.586;2024-01-25T05:11:21;36;34;
48717;PMS5003;34521;33.042;-96.586;2024-01-25T05:13:48;43;40;
48717;PMS5003;34521;33.042;-96.586;2024-01-25T05:16:12;32;32;
48717;PMS5003;34521;33.042;-96.586;2024-01-25T05:18:38;36;35;
48717;PMS5003;34521;33.042;-96.586;2024-01-25T05:21:03;38;34;
48717;PMS5003;34521;33.042;-96.586;2024-01-25T05:23:30;42;39;
48717;PMS5003;34521;33.042;-96.586;2024-01-25T05:25:56;33;32;
48717;PMS5003;34521;33.042;-96.586;2024-01-25T05:28:19;40;37;
48717;PMS5003;34521;33.042;-96.586;2024-01-25T05:30:45;32;30;
48717;PMS5003;34521;33.042;-96.586;2024-01-25T05:33:11;36;35;
48717;PMS5003;34521;33.042;-96.586;2024-01-25T05:35:36;33;31;
48717;PMS5003;34521;33.042;-96.586;2024-01-25T05:38:02;40;38;
48717;PMS5003;34521;33.042;-96.586;2024-01-25T05:40:28;31;30;
48717;PMS5003;34521;33.042;-96.586;2024-01-25T05:42:54;32;31;
48717;PMS5003;34521;33.042;-96.586;2024-01-25T05:45:18;38;37;
48717;PMS5003;34521;33.042;-96.586;2024-01-25T05:47:43;43;41;
48717;PMS5003;34521;33.042;-96.586;2024-01-25T05:50:10;37;36;
48717;PMS5003;34521;33.042;-96.586;2024-01-25T05:52:33;48;45;
48717;PMS5003;34521;33.042;-96.586;2024-01-25T05:55:00;45;44;
48717;PMS5003;34521;33.042;-96.586;2024-01-25T05:57:25;42;41;
48717;PMS5003;34521;33.042;-96.586;2024-01-25T05:59:49;41;40;
48717;PMS5003;34521;33.042;-96.586;2024-01-25T06:02:16;40;40;
48717;PMS5003;34521;33.042;-96.586;2024-01-25T06:04:40;41;39;
48717;PMS5003;34521;33.042;-96.586;2024-01-25T06:07:05;43;40;
48717;PMS5003;34521;33.042;-96.586;2024-01-25T06:09:31;52;48;
48717;PMS5003;34521;33.042;-96.586;2024-01-25T06:11:57;44;40;
48717;PMS5003;34521;33.042;-96.586;2024-01-25T06:14:23;51;48;
48717;PMS5003;34521;33.042;-96.586;2024-01-25T06:16:49;55;51;
48717;PMS5003;34521;33.042;-96.586;2024-01-25T06:19:14;47;46;
48717;PMS5003;34521;33.042;-96.586;2024-01-25T06:21:38;43;41;
48717;PMS5003;34521;33.042;-96.586;2024-01-25T06:24:04;47;43;
48717;PMS5003;34521;33.042;-96.586;2024-01-25T06:26:30;49;47;
48717;PMS5003;34521;33.042;-96.586;2024-01-25T06:28:55;48;45;
48717;PMS5003;34521;33.042;-96.586;2024-01-25T06:31:20;48;45;
48717;PMS5003;34521;33.042;-96.586;2024-01-25T06:33:46;44;43;
48717;PMS5003;34521;33.042;-96.586;2024-01-25T06:36:13;42;40;
48717;PMS5003;34521;33.042;-96.586;2024-01-25T06:38:37;39;38;
48717;PMS5003;34521;33.042;-96.586;2024-01-25T06:41:04;48;44;
48717;PMS5003;34521;33.042;-96.586;2024-01-25T06:43:28;43;39;
48717;PMS5003;34521;33.042;-96.586;2024-01-25T06:45:53;47;44;
48717;PMS5003;34521;33.042;-96.586;2024-01-25T06:48:18;43;40;
48717;PMS5003;34521;33.042;-96.586;2024-01-25T06:50:44;50;47;
48717;PMS5003;34521;33.042;-96.586;2024-01-25T06:53:10;43;42;
48717;PMS5003;34521;33.042;-96.586;2024-01-25T06:55:35;43;38;
48717;PMS5003;34521;33.042;-96.586;2024-01-25T06:58:03;40;39;
48717;PMS5003;34521;33.042;-96.586;2024-01-25T07:00:26;42;39;
48717;PMS5003;34521;33.042;-96.586;2024-01-25T07:02:56;40;39;
48717;PMS5003;34521;33.042;-96.586;2024-01-25T07:05:17;39;38;
48717;PMS5003;34521;33.042;-96.586;2024-01-25T07:07:43;41;38;
48717;PMS5003;34521;33.042;-96.586;2024-01-25T07:10:09;39;38;
48717;PMS5003;34521;33.042;-96.586;2024-01-25T07:12:34;39;37;
48717;PMS5003;34521;33.042;-96.586;2024-01-25T07:15:01;39;35;
48717;PMS5003;34521;33.042;-96.586;2024-01-25T07:19:52;49;48;
48717;PMS5003;34521;33.042;-96.586;2024-01-25T07:22:17;45;43;
48717;PMS5003;34521;33.042;-96.586;2024-01-25T07:24:42;37;34;
48717;PMS5003;34521;33.042;-96.586;2024-01-25T07:27:10;39;37;
48717;PMS5003;34521;33.042;-96.586;2024-01-25T07:29:34;45;43;
48717;PMS5003;34521;33.042;-96.586;2024-01-25T07:32:01;43;41;
48717;PMS5003;34521;33.042;-96.586;2024-01-25T07:34:30;39;38;
48717;PMS5003;34521;33.042;-96.586;2024-01-25T07:36:51;41;40;
48717;PMS5003;34521;33.042;-96.586;2024-01-25T07:39:15;38;36;
48717;PMS5003;34521;33.042;-96.586;2024-01-25T07:41:41;48;46;
48717;PMS5003;34521;33.042;-96.586;2024-01-25T07:44:07;39;38;
48717;PMS5003;34521;33.042;-96.586;2024-01-25T07:46:32;34;33;
48717;PMS5003;34521;33.042;-96.586;2024-01-25T07:48:57;36;35;
48717;PMS5003;34521;33.042;-96.586;2024-01-25T07:51:23;44;42;
48717;PMS5003;34521;33.042;-96.586;2024-01-25T07:53:48;44;42;
48717;PMS5003;34521;33.042;-96.586;2024-01-25T07:56:14;42;41;
48717;PMS5003;34521;33.042;-96.586;2024-01-25T07:58:41;45;43;
48717;PMS5003;34521;33.042;-96.586;2024-01-25T08:01:06;41;39;
48717;PMS5003;34521;33.042;-96.586;2024-01-25T08:03:32;43;38;
48717;PMS5003;34521;33.042;-96.586;2024-01-25T08:05:56;43;40;
48717;PMS5003;34521;33.042;-96.586;2024-01-25T08:08:27;34;32;
48717;PMS5003;34521;33.042;-96.586;2024-01-25T08:10:48;38;37;
48717;PMS5003;34521;33.042;-96.586;2024-01-25T08:13:14;35;33;
48717;PMS5003;34521;33.042;-96.586;2024-01-25T08:15:39;43;41;
48717;PMS5003;34521;33.042;-96.586;2024-01-25T08:18:06;38;36;
48717;PMS5003;34521;33.042;-96.586;2024-01-25T08:20:31;38;36;
48717;PMS5003;34521;33.042;-96.586;2024-01-25T08:22:56;40;40;
48717;PMS5003;34521;33.042;-96.586;2024-01-25T08:25:21;36;33;
48717;PMS5003;34521;33.042;-96.586;2024-01-25T08:27:47;40;36;
48717;PMS5003;34521;33.042;-96.586;2024-01-25T08:30:13;39;35;
48717;PMS5003;34521;33.042;-96.586;2024-01-25T08:32:40;41;39;
48717;PMS5003;34521;33.042;-96.586;2024-01-25T08:35:03;42;38;
48717;PMS5003;34521;33.042;-96.586;2024-01-25T08:37:30;39;36;
48717;PMS5003;34521;33.042;-96.586;2024-01-25T08:39:54;37;34;
48717;PMS5003;34521;33.042;-96.586;2024-01-25T08:42:19;39;37;
48717;PMS5003;34521;33.042;-96.586;2024-01-25T08:44:46;39;37;
48717;PMS5003;34521;33.042;-96.586;2024-01-25T08:47:10;38;33;
48717;PMS5003;34521;33.042;-96.586;2024-01-25T08:49:38;37;35;
48717;PMS5003;34521;33.042;-96.586;2024-01-25T08:52:02;30;30;
48717;PMS5003;34521;33.042;-96.586;2024-01-25T08:54:27;38;36;
48717;PMS5003;34521;33.042;-96.586;2024-01-25T08:56:53;40;36;
48717;PMS5003;34521;33.042;-96.586;2024-01-25T08:59:18;38;36;
48717;PMS5003;34521;33.042;-96.586;2024-01-25T09:01:44;38;36;
48717;PMS5003;34521;33.042;-96.586;2024-01-25T09:04:09;39;37;
48717;PMS5003;34521;33.042;-96.586;2024-01-25T09:06:34;36;34;
48717;PMS5003;34521;33.042;-96.586;2024-01-25T09:09:00;39;37;
48717;PMS5003;34521;33.042;-96.586;2024-01-25T09:11:25;30;29;
48717;PMS5003;34521;33.042;-96.586;2024-01-25T09:13:51;38;35;
48717;PMS5003;34521;33.042;-96.586;2024-01-25T09:16:17;34;34;
48717;PMS5003;34521;33.042;-96.586;2024-01-25T09:18:42;36;33;
48717;PMS5003;34521;33.042;-96.586;2024-01-25T09:21:08;35;34;
48717;PMS5003;34521;33.042;-96.586;2024-01-25T09:23:34;37;35;
48717;PMS5003;34521;33.042;-96.586;2024-01-25T09:25:58;37;36;
48717;PMS5003;34521;33.042;-96.586;2024-01-25T09:28:24;36;33;
48717;PMS5003;34521;33.042;-96.586;2024-01-25T09:30:49;31;30;
48717;PMS5003;34521;33.042;-96.586;2024-01-25T09:33:14;33;30;
48717;PMS5003;34521;33.042;-96.586;2024-01-25T09:35:39;30;30;
48717;PMS5003;34521;33.042;-96.586;2024-01-25T09:38:05;36;35;
48717;PMS5003;34521;33.042;-96.586;2024-01-25T09:40:30;34;30;
48717;PMS5003;34521;33.042;-96.586;2024-01-25T09:42:56;38;35;
48717;PMS5003;34521;33.042;-96.586;2024-01-25T09:45:21;38;38;
48717;PMS5003;34521;33.042;-96.586;2024-01-25T09:47:46;39;36;
48717;PMS5003;34521;33.042;-96.586;2024-01-25T09:50:12;33;32;
48717;PMS5003;34521;33.042;-96.586;2024-01-25T09:52:38;45;40;
48717;PMS5003;34521;33.042;-96.586;2024-01-25T09:55:05;36;35;
48717;PMS5003;34521;33.042;-96.586;2024-01-25T09:57:29;29;29;
48717;PMS5003;34521;33.042;-96.586;2024-01-25T09:59:56;40;37;
48717;PMS5003;34521;33.042;-96.586;2024-01-25T10:02:19;35;34;
48717;PMS5003;34521;33.042;-96.586;2024-01-25T10:04:48;35;32;
48717;PMS5003;34521;33.042;-96.586;2024-01-25T10:07:10;35;33;
48717;PMS5003;34521;33.042;-96.586;2024-01-25T10:09:38;34;33;
48717;PMS5003;34521;33.042;-96.586;2024-01-25T10:12:01;35;33;
48717;PMS5003;34521;33.042;-96.586;2024-01-25T10:14:27;38;36;
48717;PMS5003;34521;33.042;-96.586;2024-01-25T10:16:52;42;39;
48717;PMS5003;34521;33.042;-96.586;2024-01-25T10:19:17;31;30;
48717;PMS5003;34521;33.042;-96.586;2024-01-25T10:21:43;31;31;
48717;PMS5003;34521;33.042;-96.586;2024-01-25T10:24:08;34;33;
48717;PMS5003;34521;33.042;-96.586;2024-01-25T10:26:35;34;34;
48717;PMS5003;34521;33.042;-96.586;2024-01-25T10:29:00;42;39;
48717;PMS5003;34521;33.042;-96.586;2024-01-25T10:31:26;31;31;
48717;PMS5003;34521;33.042;-96.586;2024-01-25T10:33:51;35;33;
48717;PMS5003;34521;33.042;-96.586;2024-01-25T10:36:16;39;36;
48717;PMS5003;34521;33.042;-96.586;2024-01-25T10:38:41;31;31;
48717;PMS5003;34521;33.042;-96.586;2024-01-25T10:41:06;40;38;
48717;PMS5003;34521;33.042;-96.586;2024-01-25T10:43:33;36;34;
48717;PMS5003;34521;33.042;-96.586;2024-01-25T10:45:57;36;34;
48717;PMS5003;34521;33.042;-96.586;2024-01-25T10:48:22;35;33;
48717;PMS5003;34521;33.042;-96.586;2024-01-25T10:50:49;35;34;
48717;PMS5003;34521;33.042;-96.586;2024-01-25T10:53:14;31;29;
48717;PMS5003;34521;33.042;-96.586;2024-01-25T10:55:39;34;34;
48717;PMS5003;34521;33.042;-96.586;2024-01-25T10:58:06;35;31;
48717;PMS5003;34521;33.042;-96.586;2024-01-25T11:00:31;29;27;
48717;PMS5003;34521;33.042;-96.586;2024-01-25T11:02:55;33;32;
48717;PMS5003;34521;33.042;-96.586;2024-01-25T11:05:20;34;33;
48717;PMS5003;34521;33.042;-96.586;2024-01-25T11:07:46;37;37;
48717;PMS5003;34521;33.042;-96.586;2024-01-25T11:10:12;37;36;
48717;PMS5003;34521;33.042;-96.586;2024-01-25T11:15:06;34;32;
48717;PMS5003;34521;33.042;-96.586;2024-01-25T11:17:27;30;29;
48717;PMS5003;34521;33.042;-96.586;2024-01-25T11:19:52;31;30;
48717;PMS5003;34521;33.042;-96.586;2024-01-25T11:22:17;32;31;
48717;PMS5003;34521;33.042;-96.586;2024-01-25T11:24:44;32;30;
48717;PMS5003;34521;33.042;-96.586;2024-01-25T11:27:08;37;34;
48717;PMS5003;34521;33.042;-96.586;2024-01-25T11:29:34;35;32;
48717;PMS5003;34521;33.042;-96.586;2024-01-25T11:31:59;38;37;
48717;PMS5003;34521;33.042;-96.586;2024-01-25T11:34:24;38;34;
48717;PMS5003;34521;33.042;-96.586;2024-01-25T11:36:49;33;33;
48717;PMS5003;34521;33.042;-96.586;2024-01-25T11:39:16;32;31;
48717;PMS5003;34521;33.042;-96.586;2024-01-25T11:41:41;39;38;
48717;PMS5003;34521;33.042;-96.586;2024-01-25T11:44:06;37;34;
48717;PMS5003;34521;33.042;-96.586;2024-01-25T11:46:31;30;30;
48717;PMS5003;34521;33.042;-96.586;2024-01-25T11:48:59;39;37;
48717;PMS5003;34521;33.042;-96.586;2024-01-25T11:51:23;39;38;
48717;PMS5003;34521;33.042;-96.586;2024-01-25T11:53:50;36;35;
48717;PMS5003;34521;33.042;-96.586;2024-01-25T11:56:16;44;39;
48717;PMS5003;34521;33.042;-96.586;2024-01-25T11:58:45;33;31;
48717;PMS5003;34521;33.042;-96.586;2024-01-25T12:01:05;37;35;
48717;PMS5003;34521;33.042;-96.586;2024-01-25T12:03:30;34;33;
48717;PMS5003;34521;33.042;-96.586;2024-01-25T12:05:57;36;33;
48717;PMS5003;34521;33.042;-96.586;2024-01-25T12:08:23;33;32;
48717;PMS5003;34521;33.042;-96.586;2024-01-25T12:10:49;42;39;
48717;PMS5003;34521;33.042;-96.586;2024-01-25T12:13:12;35;32;
48717;PMS5003;34521;33.042;-96.586;2024-01-25T12:15:37;39;37;
48717;PMS5003;34521;33.042;-96.586;2024-01-25T12:18:05;32;31;
48717;PMS5003;34521;33.042;-96.586;2024-01-25T12:20:28;38;35;
48717;PMS5003;34521;33.042;-96.586;2024-01-25T12:22:54;37;35;
48717;PMS5003;34521;33.042;-96.586;2024-01-25T12:25:20;36;31;
48717;PMS5003;34521;33.042;-96.586;2024-01-25T12:27:45;39;37;
48717;PMS5003;34521;33.042;-96.586;2024-01-25T12:30:11;41;39;
48717;PMS5003;34521;33.042;-96.586;2024-01-25T12:32:37;36;32;
48717;PMS5003;34521;33.042;-96.586;2024-01-25T12:35:01;35;33;
48717;PMS5003;34521;33.042;-96.586;2024-01-25T12:37:28;34;34;
48717;PMS5003;34521;33.042;-96.586;2024-01-25T12:39:53;40;38;
48717;PMS5003;34521;33.042;-96.586;2024-01-25T12:42:19;34;33;
48717;PMS5003;34521;33.042;-96.586;2024-01-25T12:44:44;35;33;
48717;PMS5003;34521;33.042;-96.586;2024-01-25T12:47:09;37;35;
48717;PMS5003;34521;33.042;-96.586;2024-01-25T12:49:36;34;31;
48717;PMS5003;34521;33.042;-96.586;2024-01-25T12:51:59;33;31;
48717;PMS5003;34521;33.042;-96.586;2024-01-25T12:54:26;38;35;
48717;PMS5003;34521;33.042;-96.586;2024-01-25T12:56:50;41;39;
48717;PMS5003;34521;33.042;-96.586;2024-01-25T12:59:16;42;34;
48717;PMS5003;34521;33.042;-96.586;2024-01-25T13:01:41;35;32;
48717;PMS5003;34521;33.042;-96.586;2024-01-25T13:04:06;35;34;
48717;PMS5003;34521;33.042;-96.586;2024-01-25T13:06:32;38;36;
48717;PMS5003;34521;33.042;-96.586;2024-01-25T13:08:57;37;35;
48717;PMS5003;34521;33.042;-96.586;2024-01-25T13:11:22;43;41;
48717;PMS5003;34521;33.042;-96.586;2024-01-25T13:13:48;39;37;
48717;PMS5003;34521;33.042;-96.586;2024-01-25T13:16:13;41;40;
48717;PMS5003;34521;33.042;-96.586;2024-01-25T13:18:39;36;35;
48717;PMS5003;34521;33.042;-96.586;2024-01-25T13:21:05;36;34;
48717;PMS5003;34521;33.042;-96.586;2024-01-25T13:23:30;38;35;
48717;PMS5003;34521;33.042;-96.586;2024-01-25T13:25:56;42;40;
48717;PMS5003;34521;33.042;-96.586;2024-01-25T13:28:23;39;38;
48717;PMS5003;34521;33.042;-96.586;2024-01-25T13:30:48;44;42;
48717;PMS5003;34521;33.042;-96.586;2024-01-25T13:33:13;44;42;
48717;PMS5003;34521;33.042;-96.586;2024-01-25T13:35:38;46;43;
48717;PMS5003;34521;33.042;-96.586;2024-01-25T13:38:03;44;42;
48717;PMS5003;34521;33.042;-96.586;2024-01-25T13:40:29;47;42;
48717;PMS5003;34521;33.042;-96.586;2024-01-25T13:42:54;52;51;
48717;PMS5003;34521;33.042;-96.586;2024-01-25T13:45:20;46;45;
48717;PMS5003;34521;33.042;-96.586;2024-01-25T13:47:45;48;44;
48717;PMS5003;34521;33.042;-96.586;2024-01-25T13:50:12;47;46;
48717;PMS5003;34521;33.042;-96.586;2024-01-25T13:52:36;50;43;
48717;PMS5003;34521;33.042;-96.586;2024-01-25T13:55:02;44;40;
48717;PMS5003;34521;33.042;-96.586;2024-01-25T13:57:27;47;45;
48717;PMS5003;34521;33.042;-96.586;2024-01-25T13:59:54;43;40;
48717;PMS5003;34521;33.042;-96.586;2024-01-25T14:02:18;43;40;
48717;PMS5003;34521;33.042;-96.586;2024-01-25T14:04:45;42;41;
48717;PMS5003;34521;33.042;-96.586;2024-01-25T14:07:09;45;44;
48717;PMS5003;34521;33.042;-96.586;2024-01-25T14:09:34;39;36;
48717;PMS5003;34521;33.042;-96.586;2024-01-25T14:12:01;40;39;
48717;PMS5003;34521;33.042;-96.586;2024-01-25T14:14:25;44;41;
48717;PMS5003;34521;33.042;-96.586;2024-01-25T14:16:51;39;37;
48717;PMS5003;34521;33.042;-96.586;2024-01-25T14:19:15;38;35;
48717;PMS5003;34521;33.042;-96.586;2024-01-25T14:21:43;43;40;
48717;PMS5003;34521;33.042;-96.586;2024-01-25T14:24:07;39;37;
48717;PMS5003;34521;33.042;-96.586;2024-01-25T14:26:32;41;40;
48717;PMS5003;34521;33.042;-96.586;2024-01-25T14:28:58;39;35;
48717;PMS5003;34521;33.042;-96.586;2024-01-25T14:31:23;41;39;
48717;PMS5003;34521;33.042;-96.586;2024-01-25T14:33:49;42;41;
48717;PMS5003;34521;33.042;-96.586;2024-01-25T14:36:14;39;37;
48717;PMS5003;34521;33.042;-96.586;2024-01-25T14:38:40;41;41;
48717;PMS5003;34521;33.042;-96.586;2024-01-25T14:41:07;41;40;
48717;PMS5003;34521;33.042;-96.586;2024-01-25T14:43:32;41;40;
48717;PMS5003;34521;33.042;-96.586;2024-01-25T14:45:57;40;37;
48717;PMS5003;34521;33.042;-96.586;2024-01-25T14:48:23;42;38;
48717;PMS5003;34521;33.042;-96.586;2024-01-25T14:50:48;41;39;
48717;PMS5003;34521;33.042;-96.586;2024-01-25T14:53:13;36;35;
48717;PMS5003;34521;33.042;-96.586;2024-01-25T14:55:39;39;38;
48717;PMS5003;34521;33.042;-96.586;2024-01-25T14:58:04;35;34;
48717;PMS5003;34521;33.042;-96.586;2024-01-25T15:00:30;42;40;
48717;PMS5003;34521;33.042;-96.586;2024-01-25T15:02:55;38;35;
48717;PMS5003;34521;33.042;-96.586;2024-01-25T15:05:20;37;37;
48717;PMS5003;34521;33.042;-96.586;2024-01-25T15:07:45;43;41;
48717;PMS5003;34521;33.042;-96.586;2024-01-25T15:10:11;40;37;
48717;PMS5003;34521;33.042;-96.586;2024-01-25T15:12:37;48;44;
48717;PMS5003;34521;33.042;-96.586;2024-01-25T15:15:02;43;40;
48717;PMS5003;34521;33.042;-96.586;2024-01-25T15:17:28;42;39;
48717;PMS5003;34521;33.042;-96.586;2024-01-25T15:19:53;45;41;
48717;PMS5003;34521;33.042;-96.586;2024-01-25T15:22:18;41;39;
48717;PMS5003;34521;33.042;-96.586;2024-01-25T15:24:45;36;34;
48717;PMS5003;34521;33.042;-96.586;2024-01-25T15:27:09;36;33;
48717;PMS5003;34521;33.042;-96.586;2024-01-25T15:29:38;37;37;
48717;PMS5003;34521;33.042;-96.586;2024-01-25T15:32:00;43;40;
48717;PMS5003;34521;33.042;-96.586;2024-01-25T15:34:25;38;36;
48717;PMS5003;34521;33.042;-96.586;2024-01-25T15:36:51;41;39;
48717;PMS5003;34521;33.042;-96.586;2024-01-25T15:39:16;42;42;